• Join FlightAware (Why Join?)
  • Login
  • US Flag 
11:16PM EST


 

Airport Tracker/Info


-or-


 

Live Flight TrackerFlight Track Log ✈ ASQ5685 ✈ 11-Jun-2013 ✈ KATL - KIAD

Flight Track Log - Related Links

Times and Time Zones

All times are in EDT time to prevent confusion due to time zone crossing. See the ASQ5685 flight status page for this flight to view local times or setup timezone preferences in your user account.

Time Position Orientation Groundspeed Altitude Reporting Facility
EDT Latitude Longitude Course Direction KTS MPH feet Rate Location/Type
09:14AM 33.6333 -84.4833 48° Northeast 165 190 2,700  Level Atlanta TRACON
09:15AM 33.6000 -84.5500 239° Southwest 251 289 4,100 2,200 Climbing Atlanta TRACON
09:16AM 33.8619 -84.1603 73° East  Level Estimated
09:16AM 33.5333 -84.5833 203° Southwest 283 326 7,100  Level Atlanta TRACON
09:17AM 33.9368 -84.0708 54° Northeast  Level Estimated
09:17AM 33.4667 -84.5500 157° South 303 349 9,300  Level Atlanta TRACON
09:18AM 33.9071 -83.9488 106° East  Level FlightAware Approximate
09:18AM 33.4500 -84.4500 101° East 329 379 10,800  Level Atlanta TRACON
09:19AM 33.9828 -83.8602 48° Northeast  Level Estimated
09:19AM 33.4622 -84.3003 84° East 357 411 11,900  Level Atlanta Center
09:20AM 33.5394 -84.2233 40° Northeast 341 392 13,500 1,750 Climbing Atlanta Center
09:21AM 33.6250 -84.1661 29° Northeast 341 392 15,400 1,400 Climbing Atlanta Center
09:22AM 33.7128 -84.1111 28° Northeast 341 392 16,300 850 Climbing Atlanta Center
09:23AM 33.7775 -84.0114 52° Northeast 378 435 17,100 750 Climbing Atlanta Center
09:24AM 33.8339 -83.8964 59° Northeast 378 435 17,800 800 Climbing Atlanta Center
09:25AM 33.8942 -83.7836 57° Northeast 395 455 18,700 1,000 Climbing Atlanta Center
09:26AM 33.9564 -83.6731 56° Northeast 402 463 19,800 950 Climbing Atlanta Center
09:27AM 34.0231 -83.5650 53° Northeast 402 463 20,600 750 Climbing Atlanta Center
09:28AM 34.0914 -83.4569 53° Northeast 402 463 21,300 950 Climbing Atlanta Center
09:29AM 34.1639 -83.3458 52° Northeast 414 476 22,500 1,050 Climbing Atlanta Center
09:30AM 34.2236 -83.2500 53° Northeast 414 476 23,400 750 Climbing Atlanta Center
09:31AM 34.2897 -83.1361 55° Northeast 414 476 24,000 300 Climbing Atlanta Center
09:32AM 34.3597 -83.0197 54° Northeast 420 483 24,000  Level Atlanta Center
09:33AM 34.4358 -82.9003 52° Northeast 432 497 24,000 200 Level Atlanta Center
09:34AM 34.5142 -82.7783 52° Northeast 453 521 24,400 650 Climbing Atlanta Center
09:35AM 34.5858 -82.6611 53° Northeast 443 510 25,300 900 Climbing Atlanta Center
09:36AM 34.6575 -82.5489 52° Northeast 432 497 26,200 900 Climbing Atlanta Center
09:37AM 34.7292 -82.4314 53° Northeast 432 497 27,100 900 Climbing Atlanta Center
09:38AM 34.7986 -82.3186 53° Northeast 427 491 28,000 700 Climbing Atlanta Center
09:39AM 34.8658 -82.2033 55° Northeast 416 479 28,500 450 Climbing Atlanta Center
09:40AM 34.9372 -82.0931 52° Northeast 416 479 28,900 450 Climbing Atlanta Center
09:41AM 35.0083 -81.9744 54° Northeast 421 484 29,400 500 Climbing Atlanta Center
09:42AM 35.0750 -81.8511 57° Northeast 426 490 29,900 550 Climbing Atlanta Center
09:43AM 35.1414 -81.7250 57° Northeast 433 498 30,500 550 Climbing Atlanta Center
09:44AM 35.2100 -81.6011 56° Northeast 444 511 31,000 250 Climbing Atlanta Center
09:45AM 35.2761 -81.4692 58° Northeast 450 518 31,000  Level Atlanta Center
09:46AM 35.3422 -81.3425 57° Northeast 450 518 31,000  Level Atlanta Center
09:47AM 35.4103 -81.2053 59° Northeast 458 527 31,000  Level Atlanta Center
09:48AM 35.4800 -81.0728 57° Northeast 465 535 31,000  Level Atlanta Center
09:49AM 35.5497 -80.9400 57° Northeast 460 529 31,000  Level Atlanta Center
09:50AM 35.6194 -80.8072 57° Northeast 460 529 31,000  Level Atlanta Center
09:51AM 35.6947 -80.6633 57° Northeast 460 529 31,000  Level Atlanta Center
09:52AM 35.7581 -80.5406 58° Northeast 465 535 31,000  Level Atlanta Center
09:53AM 35.8311 -80.3939 58° Northeast 465 535 31,000  Level Atlanta Center
09:54AM 35.8997 -80.2550 59° Northeast 465 535 31,000  Level Atlanta Center
09:55AM 35.9667 -80.1211 58° Northeast 465 535 31,000  Level Atlanta Center
09:57AM 36.0844 -79.9125 55° Northeast 483 556 31,000 1,472 Level Washington Center
09:58AM 36.1600 -79.7803 55° Northeast 476 548 35,000  Climbing Washington Center
09:59AM 36.2422 -79.6328 55° Northeast 476 548 31,000 -2,085 Descending Washington Center
10:00AM 36.3089 -79.5100 56° Northeast 470 541 30,900 -545 Descending Washington Center
10:01AM 36.3864 -79.3744 55° Northeast 482 555 29,900 -984 Descending Washington Center
10:02AM 36.4639 -79.2308 56° Northeast 482 555 28,900 -1,008 Descending Washington Center
10:03AM 36.5450 -79.0953 53° Northeast 493 567 27,900 -1,059 Descending Washington Center
10:04AM 36.6219 -78.9589 55° Northeast 483 556 26,800 -1,388 Descending Washington Center
10:05AM 36.6992 -78.8094 57° Northeast 477 549 25,100 -900 Descending Washington Center
10:06AM 36.7669 -78.6903 55° Northeast 472 543 25,000 -298 Descending Washington Center
10:07AM 36.8494 -78.5639 51° Northeast 477 549 24,500 -756 Descending Washington Center
10:08AM 36.9481 -78.4586 40° Northeast 464 534 23,500 -1,059 Descending Washington Center
10:09AM 37.0528 -78.3478 40° Northeast 452 520 22,400 -738 Descending Washington Center
10:10AM 37.1469 -78.2444 41° Northeast 446 513 22,000 -202 Descending Washington Center
10:11AM 37.2175 -78.1686 41° Northeast 441 507 22,000  Level Washington Center
10:12AM 37.3156 -78.0647 40° Northeast 427 491 22,000  Level Washington Center
10:13AM 37.4094 -77.9606 41° Northeast 427 491 22,000 -661 Level Washington Center
10:14AM 37.5033 -77.8589 41° Northeast 439 505 20,700 -1,475 Descending Washington Center
10:16AM 37.7164 -77.7183 28° Northeast 434 499 17,600 -1,516 Descending Washington Center
10:17AM 37.8239 -77.6556 25° Northeast 420 483 16,100 -1,537 Descending Washington Center
10:18AM 37.9269 -77.5978 24° Northeast 414 476 14,500 -1,900 Descending Washington Center
10:19AM 38.0367 -77.5347 24° Northeast 402 463 12,300 -2,231 Descending Washington Center
10:20AM 38.1333 -77.4792 24° Northeast 384 442 10,000 -1,210 Descending Washington Center
10:21AM 38.2114 -77.4308 26° Northeast 347 399 9,900 -356 Descending Washington Center
10:22AM 38.2822 -77.4300 North 277 319 9,300 -900 Descending Washington Center
10:23AM 38.3569 -77.4506 348° North 266 306 8,100 -1,190 Descending Washington Center
10:24AM 38.4319 -77.4469 North 266 306 6,900 -1,240 Descending Washington Center
10:25AM 38.5072 -77.4489 359° North 271 312 5,600 -1,091 Descending Washington Center
10:26AM 38.5781 -77.4428 North 271 312 4,700 -958 Descending Washington Center
10:27AM 38.6469 -77.4444 359° North 260 299 3,700 -1,037 Descending Washington Center
10:27AM 38.6667 -77.4333 24° Northeast 246 283 3,300 -506 Descending Potomac TRACON
10:28AM 38.7333 -77.4333 360° North 221 254 3,000 -200 Descending Potomac TRACON
10:29AM 38.7833 -77.4333 360° North 181 208 2,900 -100 Descending Potomac TRACON